Hlavní strana
METAR-TAF:

METAR-TAF

Letiště :

Urgench, Uzbekistán

zeměpisná šířka: 41-35N, zeměpisná délka: 060-38-42E, výška: 98 m

Aktuální stav počasí

Zpráva byla vytvořena před 33 minutami, v 01:00 UTC
Západojihozápadní vítr 6 kt
Teplota 14°C
Vlhkost vzduchu 67%
Tlak 1016 hPa
Viditelnost 10 km a více
Žádná oblačnost pod 1500 m, nevyskytují se cumulonimby.

METAR: UTNU 090100Z 25006KT CAVOK 14/08 Q1016 R31/CLRD70 NOSIG

Čas: 06:33 (01:33 UTC)

Předpověď počasí

Zpráva byla vytvořena před 2 hodinami a 33 minutami, v 23:00 UTC
Předpověď platná od 09 v 00 UTC do 12 v 20 UTC
Severoseverozápadní vítr 10 kt s nárazy do 20 kt
Viditelnost: 8000 m
Skoro jasno ve výšce 6000 ft, Cumulonimbus.
Oblačno až skoro zataženo ve výšce 10000 ft
Dočasný
od 09 v 00 UTC do 09 v 06 UTC
Západní vítr 14 kt
Oblačno až skoro zataženo ve výšce 4000 ft, Cumulonimbus.
Zataženo ve výšce 10000 ft

TAF: UTNU 082300Z 09/0924 34010G20KT 8000 FEW060CB BKN100 TEMPO 0900/0906 26014KT BKN040CB OVC100

Stav a předpovědi počasí z více než 4 000 letišť (zprávy METAR a TAF).

Červené a žluté tečky na mapě představují dostupné meteorologické stanice.

Když kurzor umístíte na tečku, zobrazí se název stanice.

Pak kliknutím zobrazíte stav a předpověď počasí.

Chcete-li změnit mapu, kliknutím na zelené tlačítko se znaménkem +mapu přiblížíte, kliknutím na zelené tlačítko se znaménkem – mapu oddálíte a kliknutím na zelené šipky přejdete na sousední mapy.


METAR-TAF: